sensor_id;sensor_type;location;lat;lon;timestamp;temperature;humidity
13684;DHT22;6914;53.552;9.908;2024-01-30T00:00:21;5.10;99.90
13684;DHT22;6914;53.552;9.908;2024-01-30T00:02:49;5.00;99.90
13684;DHT22;6914;53.552;9.908;2024-01-30T00:05:16;5.00;99.90
13684;DHT22;6914;53.552;9.908;2024-01-30T00:10:13;5.00;99.90
13684;DHT22;6914;53.552;9.908;2024-01-30T00:12:40;4.90;99.90
13684;DHT22;6914;53.552;9.908;2024-01-30T00:15:07;4.90;99.90
13684;DHT22;6914;53.552;9.908;2024-01-30T00:17:35;4.80;99.90
13684;DHT22;6914;53.552;9.908;2024-01-30T00:20:03;4.80;99.90
13684;DHT22;6914;53.552;9.908;2024-01-30T00:22:31;4.70;99.90
13684;DHT22;6914;53.552;9.908;2024-01-30T00:24:59;4.70;99.90
13684;DHT22;6914;53.552;9.908;2024-01-30T00:27:26;4.60;99.90
13684;DHT22;6914;53.552;9.908;2024-01-30T00:29:53;4.70;99.90
13684;DHT22;6914;53.552;9.908;2024-01-30T00:32:20;4.70;99.90
13684;DHT22;6914;53.552;9.908;2024-01-30T00:34:49;4.70;99.90
13684;DHT22;6914;53.552;9.908;2024-01-30T00:37:16;4.60;99.90
13684;DHT22;6914;53.552;9.908;2024-01-30T00:39:42;4.60;99.90
13684;DHT22;6914;53.552;9.908;2024-01-30T00:42:10;4.50;99.90
13684;DHT22;6914;53.552;9.908;2024-01-30T00:44:37;4.40;99.90
13684;DHT22;6914;53.552;9.908;2024-01-30T00:47:04;4.40;99.90
13684;DHT22;6914;53.552;9.908;2024-01-30T00:49:31;4.30;99.90
13684;DHT22;6914;53.552;9.908;2024-01-30T00:51:58;4.30;99.90
13684;DHT22;6914;53.552;9.908;2024-01-30T00:56:52;4.30;99.90
13684;DHT22;6914;53.552;9.908;2024-01-30T00:59:20;4.30;99.90
13684;DHT22;6914;53.552;9.908;2024-01-30T01:01:47;4.30;99.90
13684;DHT22;6914;53.552;9.908;2024-01-30T01:04:14;4.20;99.90
13684;DHT22;6914;53.552;9.908;2024-01-30T01:06:41;4.30;99.90
13684;DHT22;6914;53.552;9.908;2024-01-30T01:09:10;4.30;99.90
13684;DHT22;6914;53.552;9.908;2024-01-30T01:11:36;4.20;99.90
13684;DHT22;6914;53.552;9.908;2024-01-30T01:14:04;4.20;99.90
13684;DHT22;6914;53.552;9.908;2024-01-30T01:16:33;4.20;99.90
13684;DHT22;6914;53.552;9.908;2024-01-30T01:19:00;4.00;99.90
13684;DHT22;6914;53.552;9.908;2024-01-30T01:21:27;4.20;99.90
13684;DHT22;6914;53.552;9.908;2024-01-30T01:23:53;4.10;99.90
13684;DHT22;6914;53.552;9.908;2024-01-30T01:26:20;4.10;99.90
13684;DHT22;6914;53.552;9.908;2024-01-30T01:28:48;4.10;99.90
13684;DHT22;6914;53.552;9.908;2024-01-30T01:31:14;4.10;99.90
13684;DHT22;6914;53.552;9.908;2024-01-30T01:53:26;4.10;99.90
13684;DHT22;6914;53.552;9.908;2024-01-30T01:55:54;4.10;99.90
13684;DHT22;6914;53.552;9.908;2024-01-30T01:58:21;4.10;99.90
13684;DHT22;6914;53.552;9.908;2024-01-30T02:05:47;4.30;99.90
13684;DHT22;6914;53.552;9.908;2024-01-30T02:08:16;4.20;99.90
13684;DHT22;6914;53.552;9.908;2024-01-30T02:10:43;4.20;99.90
13684;DHT22;6914;53.552;9.908;2024-01-30T02:13:09;4.30;99.90
13684;DHT22;6914;53.552;9.908;2024-01-30T02:15:36;4.30;99.90
13684;DHT22;6914;53.552;9.908;2024-01-30T02:18:03;4.20;99.90
13684;DHT22;6914;53.552;9.908;2024-01-30T02:20:31;4.30;99.90
13684;DHT22;6914;53.552;9.908;2024-01-30T02:23:03;4.40;99.90
13684;DHT22;6914;53.552;9.908;2024-01-30T02:25:31;4.40;99.90
13684;DHT22;6914;53.552;9.908;2024-01-30T02:27:58;4.40;99.90
13684;DHT22;6914;53.552;9.908;2024-01-30T02:30:25;4.50;99.90
13684;DHT22;6914;53.552;9.908;2024-01-30T02:32:54;4.50;99.90
13684;DHT22;6914;53.552;9.908;2024-01-30T02:35:20;4.50;99.90
13684;DHT22;6914;53.552;9.908;2024-01-30T02:37:47;4.40;99.90
13684;DHT22;6914;53.552;9.908;2024-01-30T02:40:16;4.50;99.90
13684;DHT22;6914;53.552;9.908;2024-01-30T02:42:43;4.40;99.90
13684;DHT22;6914;53.552;9.908;2024-01-30T02:45:11;4.40;99.90
13684;DHT22;6914;53.552;9.908;2024-01-30T02:47:38;4.40;99.90
13684;DHT22;6914;53.552;9.908;2024-01-30T02:50:06;4.40;99.90
13684;DHT22;6914;53.552;9.908;2024-01-30T02:52:33;4.30;99.90
13684;DHT22;6914;53.552;9.908;2024-01-30T02:55:00;4.30;99.90
13684;DHT22;6914;53.552;9.908;2024-01-30T02:57:29;4.30;99.90
13684;DHT22;6914;53.552;9.908;2024-01-30T02:59:56;4.40;99.90
13684;DHT22;6914;53.552;9.908;2024-01-30T03:02:22;4.50;99.90
13684;DHT22;6914;53.552;9.908;2024-01-30T03:04:49;4.50;99.90
13684;DHT22;6914;53.552;9.908;2024-01-30T03:09:45;4.40;99.90
13684;DHT22;6914;53.552;9.908;2024-01-30T03:12:12;4.30;99.90
13684;DHT22;6914;53.552;9.908;2024-01-30T03:19:34;4.10;99.90
13684;DHT22;6914;53.552;9.908;2024-01-30T04:01:22;4.10;99.90
13684;DHT22;6914;53.552;9.908;2024-01-30T04:03:52;4.10;99.90
13684;DHT22;6914;53.552;9.908;2024-01-30T04:06:20;4.00;99.90
13684;DHT22;6914;53.552;9.908;2024-01-30T04:11:17;4.00;99.90
13684;DHT22;6914;53.552;9.908;2024-01-30T04:13:44;3.90;99.90
13684;DHT22;6914;53.552;9.908;2024-01-30T04:16:19;3.90;99.90
13684;DHT22;6914;53.552;9.908;2024-01-30T04:18:46;3.80;99.90
13684;DHT22;6914;53.552;9.908;2024-01-30T04:23:41;3.80;99.90
13684;DHT22;6914;53.552;9.908;2024-01-30T04:26:08;3.90;99.90
13684;DHT22;6914;53.552;9.908;2024-01-30T04:35:57;3.90;99.90
13684;DHT22;6914;53.552;9.908;2024-01-30T04:38:24;3.90;99.90
13684;DHT22;6914;53.552;9.908;2024-01-30T04:40:53;4.00;99.90
13684;DHT22;6914;53.552;9.908;2024-01-30T04:43:20;4.00;99.90
13684;DHT22;6914;53.552;9.908;2024-01-30T04:45:47;3.90;99.90
13684;DHT22;6914;53.552;9.908;2024-01-30T04:48:14;4.00;99.90
13684;DHT22;6914;53.552;9.908;2024-01-30T04:50:41;3.90;99.90
13684;DHT22;6914;53.552;9.908;2024-01-30T04:53:07;3.70;99.90
13684;DHT22;6914;53.552;9.908;2024-01-30T04:55:35;3.70;99.90
13684;DHT22;6914;53.552;9.908;2024-01-30T04:58:03;3.80;99.90
13684;DHT22;6914;53.552;9.908;2024-01-30T05:00:30;3.80;99.90
13684;DHT22;6914;53.552;9.908;2024-01-30T05:02:57;3.80;99.90
13684;DHT22;6914;53.552;9.908;2024-01-30T05:05:24;3.80;99.90
13684;DHT22;6914;53.552;9.908;2024-01-30T05:07:51;3.80;99.90
13684;DHT22;6914;53.552;9.908;2024-01-30T05:10:18;3.80;99.90
13684;DHT22;6914;53.552;9.908;2024-01-30T05:12:45;3.80;99.90
13684;DHT22;6914;53.552;9.908;2024-01-30T05:15:14;3.90;99.90
13684;DHT22;6914;53.552;9.908;2024-01-30T05:17:41;3.90;99.90
13684;DHT22;6914;53.552;9.908;2024-01-30T05:20:08;3.90;99.90
13684;DHT22;6914;53.552;9.908;2024-01-30T05:22:36;3.90;99.90
13684;DHT22;6914;53.552;9.908;2024-01-30T05:27:31;3.90;99.90
13684;DHT22;6914;53.552;9.908;2024-01-30T05:29:58;3.90;99.90
13684;DHT22;6914;53.552;9.908;2024-01-30T05:32:26;3.90;99.90
13684;DHT22;6914;53.552;9.908;2024-01-30T05:34:54;3.80;99.90
13684;DHT22;6914;53.552;9.908;2024-01-30T05:37:20;3.90;99.90
13684;DHT22;6914;53.552;9.908;2024-01-30T05:39:46;3.90;99.90
13684;DHT22;6914;53.552;9.908;2024-01-30T05:42:13;3.90;99.90
13684;DHT22;6914;53.552;9.908;2024-01-30T05:44:40;3.90;99.90
13684;DHT22;6914;53.552;9.908;2024-01-30T05:47:07;3.90;99.90
13684;DHT22;6914;53.552;9.908;2024-01-30T05:49:35;3.80;99.90
13684;DHT22;6914;53.552;9.908;2024-01-30T05:52:03;3.90;99.90
13684;DHT22;6914;53.552;9.908;2024-01-30T05:54:29;3.90;99.90
13684;DHT22;6914;53.552;9.908;2024-01-30T05:56:56;4.20;99.90
13684;DHT22;6914;53.552;9.908;2024-01-30T05:59:23;3.90;99.90
13684;DHT22;6914;53.552;9.908;2024-01-30T06:01:50;3.80;99.90
13684;DHT22;6914;53.552;9.908;2024-01-30T06:04:17;3.80;99.90
13684;DHT22;6914;53.552;9.908;2024-01-30T06:06:45;3.80;99.90
13684;DHT22;6914;53.552;9.908;2024-01-30T06:09:12;3.90;99.90
13684;DHT22;6914;53.552;9.908;2024-01-30T06:11:40;4.00;99.90
13684;DHT22;6914;53.552;9.908;2024-01-30T06:14:06;4.00;99.90
13684;DHT22;6914;53.552;9.908;2024-01-30T06:16:33;4.00;99.90
13684;DHT22;6914;53.552;9.908;2024-01-30T06:19:00;3.90;99.90
13684;DHT22;6914;53.552;9.908;2024-01-30T06:21:27;3.90;99.90
13684;DHT22;6914;53.552;9.908;2024-01-30T06:23:56;3.90;99.90
13684;DHT22;6914;53.552;9.908;2024-01-30T06:26:22;4.00;99.90
13684;DHT22;6914;53.552;9.908;2024-01-30T06:33:46;4.20;99.90
13684;DHT22;6914;53.552;9.908;2024-01-30T06:41:09;4.20;99.90
13684;DHT22;6914;53.552;9.908;2024-01-30T06:43:36;4.60;99.90
13684;DHT22;6914;53.552;9.908;2024-01-30T06:46:03;4.20;99.90
13684;DHT22;6914;53.552;9.908;2024-01-30T06:48:30;4.20;99.90
13684;DHT22;6914;53.552;9.908;2024-01-30T06:50:57;4.20;99.90
13684;DHT22;6914;53.552;9.908;2024-01-30T06:53:24;4.20;99.90
13684;DHT22;6914;53.552;9.908;2024-01-30T06:55:52;4.20;99.90
13684;DHT22;6914;53.552;9.908;2024-01-30T06:58:20;4.20;99.90
13684;DHT22;6914;53.552;9.908;2024-01-30T07:00:47;4.20;99.90
13684;DHT22;6914;53.552;9.908;2024-01-30T07:03:14;4.20;99.90
13684;DHT22;6914;53.552;9.908;2024-01-30T07:05:40;4.20;99.90
13684;DHT22;6914;53.552;9.908;2024-01-30T07:08:08;4.30;99.90
13684;DHT22;6914;53.552;9.908;2024-01-30T07:10:35;4.20;99.90
13684;DHT22;6914;53.552;9.908;2024-01-30T07:13:02;4.20;99.90
13684;DHT22;6914;53.552;9.908;2024-01-30T07:15:31;4.20;99.90
13684;DHT22;6914;53.552;9.908;2024-01-30T07:17:57;4.30;99.90
13684;DHT22;6914;53.552;9.908;2024-01-30T07:20:24;4.30;99.90
13684;DHT22;6914;53.552;9.908;2024-01-30T07:22:51;4.20;99.90
13684;DHT22;6914;53.552;9.908;2024-01-30T07:25:20;4.30;99.90
13684;DHT22;6914;53.552;9.908;2024-01-30T07:27:52;4.40;99.90
13684;DHT22;6914;53.552;9.908;2024-01-30T07:30:19;4.40;99.90
13684;DHT22;6914;53.552;9.908;2024-01-30T07:32:47;4.50;99.90
13684;DHT22;6914;53.552;9.908;2024-01-30T07:35:14;5.10;99.90
13684;DHT22;6914;53.552;9.908;2024-01-30T07:37:41;4.50;99.90
13684;DHT22;6914;53.552;9.908;2024-01-30T07:40:09;4.60;99.90
13684;DHT22;6914;53.552;9.908;2024-01-30T07:42:36;4.50;99.90
13684;DHT22;6914;53.552;9.908;2024-01-30T07:45:03;4.70;99.90
13684;DHT22;6914;53.552;9.908;2024-01-30T07:47:30;4.70;99.90
13684;DHT22;6914;53.552;9.908;2024-01-30T07:49:58;4.70;99.90
13684;DHT22;6914;53.552;9.908;2024-01-30T07:52:25;4.80;99.90
13684;DHT22;6914;53.552;9.908;2024-01-30T07:54:52;4.80;99.90
13684;DHT22;6914;53.552;9.908;2024-01-30T07:59:47;4.80;99.90
13684;DHT22;6914;53.552;9.908;2024-01-30T08:02:14;4.80;99.90
13684;DHT22;6914;53.552;9.908;2024-01-30T08:04:40;4.90;99.90
13684;DHT22;6914;53.552;9.908;2024-01-30T08:07:08;4.90;99.90
13684;DHT22;6914;53.552;9.908;2024-01-30T08:09:35;5.40;99.90
13684;DHT22;6914;53.552;9.908;2024-01-30T08:12:02;5.00;99.90
13684;DHT22;6914;53.552;9.908;2024-01-30T08:16:58;5.00;99.90
13684;DHT22;6914;53.552;9.908;2024-01-30T08:19:24;4.90;99.90
13684;DHT22;6914;53.552;9.908;2024-01-30T08:21:51;5.10;99.90
13684;DHT22;6914;53.552;9.908;2024-01-30T08:24:19;5.10;99.90
13684;DHT22;6914;53.552;9.908;2024-01-30T08:26:46;5.10;99.90
13684;DHT22;6914;53.552;9.908;2024-01-30T08:29:13;5.10;99.90
13684;DHT22;6914;53.552;9.908;2024-01-30T08:31:40;5.20;99.90
13684;DHT22;6914;53.552;9.908;2024-01-30T08:34:07;5.20;99.90
13684;DHT22;6914;53.552;9.908;2024-01-30T08:36:36;5.30;99.90
13684;DHT22;6914;53.552;9.908;2024-01-30T08:39:02;5.30;99.90
13684;DHT22;6914;53.552;9.908;2024-01-30T08:41:32;5.30;99.90
13684;DHT22;6914;53.552;9.908;2024-01-30T08:43:59;5.30;99.90
13684;DHT22;6914;53.552;9.908;2024-01-30T08:46:26;5.30;99.90
13684;DHT22;6914;53.552;9.908;2024-01-30T08:51:21;5.40;99.90
13684;DHT22;6914;53.552;9.908;2024-01-30T08:53:47;5.30;99.90
13684;DHT22;6914;53.552;9.908;2024-01-30T08:56:14;5.50;99.90
13684;DHT22;6914;53.552;9.908;2024-01-30T08:58:43;5.60;99.90
13684;DHT22;6914;53.552;9.908;2024-01-30T09:01:10;5.60;99.90
13684;DHT22;6914;53.552;9.908;2024-01-30T09:03:36;5.50;99.90
13684;DHT22;6914;53.552;9.908;2024-01-30T09:06:10;5.70;99.90
13684;DHT22;6914;53.552;9.908;2024-01-30T09:08:37;5.80;99.90
13684;DHT22;6914;53.552;9.908;2024-01-30T09:13:36;5.70;99.90
13684;DHT22;6914;53.552;9.908;2024-01-30T09:16:04;5.90;99.90
13684;DHT22;6914;53.552;9.908;2024-01-30T09:18:32;5.90;99.90
13684;DHT22;6914;53.552;9.908;2024-01-30T09:20:59;5.90;99.90
13684;DHT22;6914;53.552;9.908;2024-01-30T09:23:28;5.90;99.90
13684;DHT22;6914;53.552;9.908;2024-01-30T09:25:55;5.90;99.90
13684;DHT22;6914;53.552;9.908;2024-01-30T09:28:22;6.00;99.90
13684;DHT22;6914;53.552;9.908;2024-01-30T09:30:49;6.10;99.90
13684;DHT22;6914;53.552;9.908;2024-01-30T09:33:17;6.20;99.90
13684;DHT22;6914;53.552;9.908;2024-01-30T09:35:44;6.20;99.90
13684;DHT22;6914;53.552;9.908;2024-01-30T09:38:11;6.30;99.90
13684;DHT22;6914;53.552;9.908;2024-01-30T09:40:37;6.40;99.90
13684;DHT22;6914;53.552;9.908;2024-01-30T09:45:32;6.40;99.90
13684;DHT22;6914;53.552;9.908;2024-01-30T09:48:04;6.40;99.90
13684;DHT22;6914;53.552;9.908;2024-01-30T09:50:34;6.50;99.90
13684;DHT22;6914;53.552;9.908;2024-01-30T09:53:04;6.60;99.90
13684;DHT22;6914;53.552;9.908;2024-01-30T09:57:59;6.90;99.90
13684;DHT22;6914;53.552;9.908;2024-01-30T10:10:22;7.70;99.90
13684;DHT22;6914;53.552;9.908;2024-01-30T10:12:49;7.80;99.90
13684;DHT22;6914;53.552;9.908;2024-01-30T10:17:44;7.80;99.90
13684;DHT22;6914;53.552;9.908;2024-01-30T10:20:12;8.00;99.90
13684;DHT22;6914;53.552;9.908;2024-01-30T10:25:09;7.90;99.90
13684;DHT22;6914;53.552;9.908;2024-01-30T10:27:36;7.90;99.90
13684;DHT22;6914;53.552;9.908;2024-01-30T10:30:04;7.90;99.90
13684;DHT22;6914;53.552;9.908;2024-01-30T10:32:31;8.00;99.90
13684;DHT22;6914;53.552;9.908;2024-01-30T10:37:26;8.10;99.90
13684;DHT22;6914;53.552;9.908;2024-01-30T10:47:30;7.90;99.90
13684;DHT22;6914;53.552;9.908;2024-01-30T10:50:01;8.10;99.90
13684;DHT22;6914;53.552;9.908;2024-01-30T10:52:29;8.10;99.90
13684;DHT22;6914;53.552;9.908;2024-01-30T10:57:24;8.30;99.90
13684;DHT22;6914;53.552;9.908;2024-01-30T11:02:22;8.50;99.90
13684;DHT22;6914;53.552;9.908;2024-01-30T11:07:18;8.60;99.90
13684;DHT22;6914;53.552;9.908;2024-01-30T11:12:21;8.60;99.90
13684;DHT22;6914;53.552;9.908;2024-01-30T14:22:01;9.60;99.90
13684;DHT22;6914;53.552;9.908;2024-01-30T14:24:28;9.50;99.90
13684;DHT22;6914;53.552;9.908;2024-01-30T14:29:25;9.50;99.90
13684;DHT22;6914;53.552;9.908;2024-01-30T14:31:52;9.50;99.90
13684;DHT22;6914;53.552;9.908;2024-01-30T14:34:20;9.50;99.90
13684;DHT22;6914;53.552;9.908;2024-01-30T14:36:47;9.50;99.90
13684;DHT22;6914;53.552;9.908;2024-01-30T14:39:14;9.50;99.90
13684;DHT22;6914;53.552;9.908;2024-01-30T14:41:41;9.50;99.90
13684;DHT22;6914;53.552;9.908;2024-01-30T14:44:09;9.50;99.90
13684;DHT22;6914;53.552;9.908;2024-01-30T14:46:36;9.50;99.90
13684;DHT22;6914;53.552;9.908;2024-01-30T14:49:03;9.50;99.90
13684;DHT22;6914;53.552;9.908;2024-01-30T14:51:31;9.50;99.90
13684;DHT22;6914;53.552;9.908;2024-01-30T14:53:58;9.50;99.90
13684;DHT22;6914;53.552;9.908;2024-01-30T14:56:25;9.50;99.90
13684;DHT22;6914;53.552;9.908;2024-01-30T14:58:52;9.60;99.90
13684;DHT22;6914;53.552;9.908;2024-01-30T15:01:21;9.60;99.90
13684;DHT22;6914;53.552;9.908;2024-01-30T15:03:47;9.50;99.90
13684;DHT22;6914;53.552;9.908;2024-01-30T15:11:12;9.60;99.90
13684;DHT22;6914;53.552;9.908;2024-01-30T15:13:39;9.60;99.90
13684;DHT22;6914;53.552;9.908;2024-01-30T15:16:06;9.60;99.90
13684;DHT22;6914;53.552;9.908;2024-01-30T15:18:35;9.70;99.90
13684;DHT22;6914;53.552;9.908;2024-01-30T15:21:02;9.70;99.90
13684;DHT22;6914;53.552;9.908;2024-01-30T15:23:29;9.60;99.90
13684;DHT22;6914;53.552;9.908;2024-01-30T15:25:56;9.70;99.90
13684;DHT22;6914;53.552;9.908;2024-01-30T15:31:02;9.60;99.90
13684;DHT22;6914;53.552;9.908;2024-01-30T15:33:28;9.70;99.90
13684;DHT22;6914;53.552;9.908;2024-01-30T15:35:57;9.70;99.90
13684;DHT22;6914;53.552;9.908;2024-01-30T15:38:24;9.70;99.90
13684;DHT22;6914;53.552;9.908;2024-01-30T15:40:52;9.70;99.90
13684;DHT22;6914;53.552;9.908;2024-01-30T15:43:18;9.60;99.90
13684;DHT22;6914;53.552;9.908;2024-01-30T15:45:45;9.70;99.90
13684;DHT22;6914;53.552;9.908;2024-01-30T15:48:13;9.70;99.90
13684;DHT22;6914;53.552;9.908;2024-01-30T15:50:39;9.70;99.90
13684;DHT22;6914;53.552;9.908;2024-01-30T15:53:08;9.70;99.90
13684;DHT22;6914;53.552;9.908;2024-01-30T15:55:35;9.70;99.90
13684;DHT22;6914;53.552;9.908;2024-01-30T15:58:03;9.70;99.90
13684;DHT22;6914;53.552;9.908;2024-01-30T16:00:29;9.60;99.90
13684;DHT22;6914;53.552;9.908;2024-01-30T16:02:56;9.60;99.90
13684;DHT22;6914;53.552;9.908;2024-01-30T16:05:24;9.60;99.90
13684;DHT22;6914;53.552;9.908;2024-01-30T16:07:51;9.50;99.90
13684;DHT22;6914;53.552;9.908;2024-01-30T16:10:19;9.50;99.90
13684;DHT22;6914;53.552;9.908;2024-01-30T16:12:46;9.40;99.90
13684;DHT22;6914;53.552;9.908;2024-01-30T16:15:13;9.40;99.90
13684;DHT22;6914;53.552;9.908;2024-01-30T16:17:40;9.50;99.90
13684;DHT22;6914;53.552;9.908;2024-01-30T16:20:08;9.40;99.90
13684;DHT22;6914;53.552;9.908;2024-01-30T16:22:35;9.40;99.90
13684;DHT22;6914;53.552;9.908;2024-01-30T16:25:02;9.40;99.90
13684;DHT22;6914;53.552;9.908;2024-01-30T16:27:31;9.50;99.90
13684;DHT22;6914;53.552;9.908;2024-01-30T16:29:58;9.60;99.90
13684;DHT22;6914;53.552;9.908;2024-01-30T16:34:56;9.60;99.90
13684;DHT22;6914;53.552;9.908;2024-01-30T16:37:23;9.60;99.90
13684;DHT22;6914;53.552;9.908;2024-01-30T16:39:50;9.60;99.90
13684;DHT22;6914;53.552;9.908;2024-01-30T16:42:17;9.60;99.90
13684;DHT22;6914;53.552;9.908;2024-01-30T16:44:46;9.60;99.90
13684;DHT22;6914;53.552;9.908;2024-01-30T16:47:13;9.60;99.90
13684;DHT22;6914;53.552;9.908;2024-01-30T16:49:40;9.60;99.90
13684;DHT22;6914;53.552;9.908;2024-01-30T16:52:07;9.60;99.90
13684;DHT22;6914;53.552;9.908;2024-01-30T16:54:34;9.60;99.90
13684;DHT22;6914;53.552;9.908;2024-01-30T16:57:01;9.60;99.90
13684;DHT22;6914;53.552;9.908;2024-01-30T16:59:28;9.80;99.90
13684;DHT22;6914;53.552;9.908;2024-01-30T17:01:56;9.70;99.90
13684;DHT22;6914;53.552;9.908;2024-01-30T17:04:23;9.70;99.90
13684;DHT22;6914;53.552;9.908;2024-01-30T17:06:50;9.70;99.90
13684;DHT22;6914;53.552;9.908;2024-01-30T17:09:17;9.70;99.90
13684;DHT22;6914;53.552;9.908;2024-01-30T17:11:44;9.70;99.90
13684;DHT22;6914;53.552;9.908;2024-01-30T17:14:11;9.80;99.90
13684;DHT22;6914;53.552;9.908;2024-01-30T17:16:39;9.70;99.90
13684;DHT22;6914;53.552;9.908;2024-01-30T17:19:08;8.70;99.90
13684;DHT22;6914;53.552;9.908;2024-01-30T17:24:03;9.80;99.90
13684;DHT22;6914;53.552;9.908;2024-01-30T17:26:30;9.80;99.90
13684;DHT22;6914;53.552;9.908;2024-01-30T17:28:57;10.00;99.90
13684;DHT22;6914;53.552;9.908;2024-01-30T17:31:24;9.70;99.90
13684;DHT22;6914;53.552;9.908;2024-01-30T17:33:50;9.70;99.90
13684;DHT22;6914;53.552;9.908;2024-01-30T17:36:19;9.80;99.90
13684;DHT22;6914;53.552;9.908;2024-01-30T17:38:46;9.70;99.90
13684;DHT22;6914;53.552;9.908;2024-01-30T17:41:13;9.80;99.90
13684;DHT22;6914;53.552;9.908;2024-01-30T17:43:40;9.80;99.90
13684;DHT22;6914;53.552;9.908;2024-01-30T17:48:35;9.90;99.90
13684;DHT22;6914;53.552;9.908;2024-01-30T17:51:03;9.90;99.90
13684;DHT22;6914;53.552;9.908;2024-01-30T17:53:31;9.90;99.90
13684;DHT22;6914;53.552;9.908;2024-01-30T17:55:58;10.50;99.90
13684;DHT22;6914;53.552;9.908;2024-01-30T17:58:30;9.90;99.90
13684;DHT22;6914;53.552;9.908;2024-01-30T18:00:58;9.90;99.90
13684;DHT22;6914;53.552;9.908;2024-01-30T18:03:25;9.90;99.90
13684;DHT22;6914;53.552;9.908;2024-01-30T18:05:52;9.90;99.90
13684;DHT22;6914;53.552;9.908;2024-01-30T18:08:20;9.90;99.90
13684;DHT22;6914;53.552;9.908;2024-01-30T18:10:50;9.70;99.90
13684;DHT22;6914;53.552;9.908;2024-01-30T18:13:17;9.80;99.90
13684;DHT22;6914;53.552;9.908;2024-01-30T18:15:43;9.90;99.90
13684;DHT22;6914;53.552;9.908;2024-01-30T18:18:10;9.80;99.90
13684;DHT22;6914;53.552;9.908;2024-01-30T18:20:38;9.80;99.90
13684;DHT22;6914;53.552;9.908;2024-01-30T18:23:05;10.00;99.90
13684;DHT22;6914;53.552;9.908;2024-01-30T18:25:32;9.80;99.90
13684;DHT22;6914;53.552;9.908;2024-01-30T18:28:01;9.70;99.90
13684;DHT22;6914;53.552;9.908;2024-01-30T18:30:28;9.80;99.90
13684;DHT22;6914;53.552;9.908;2024-01-30T18:32:54;9.70;99.90
13684;DHT22;6914;53.552;9.908;2024-01-30T18:35:21;9.70;99.90
13684;DHT22;6914;53.552;9.908;2024-01-30T18:37:48;9.80;99.90
13684;DHT22;6914;53.552;9.908;2024-01-30T18:40:16;9.80;99.90
13684;DHT22;6914;53.552;9.908;2024-01-30T18:42:43;9.70;99.90
13684;DHT22;6914;53.552;9.908;2024-01-30T18:45:12;9.70;99.90
13684;DHT22;6914;53.552;9.908;2024-01-30T18:47:39;9.70;99.90
13684;DHT22;6914;53.552;9.908;2024-01-30T18:50:07;9.80;99.90
13684;DHT22;6914;53.552;9.908;2024-01-30T18:55:01;9.70;99.90
13684;DHT22;6914;53.552;9.908;2024-01-30T18:57:28;9.70;99.90
13684;DHT22;6914;53.552;9.908;2024-01-30T18:59:55;9.60;99.90
13684;DHT22;6914;53.552;9.908;2024-01-30T19:02:25;9.60;99.90
13684;DHT22;6914;53.552;9.908;2024-01-30T19:04:52;9.70;99.90
13684;DHT22;6914;53.552;9.908;2024-01-30T19:07:19;9.60;99.90
13684;DHT22;6914;53.552;9.908;2024-01-30T19:09:47;9.70;99.90
13684;DHT22;6914;53.552;9.908;2024-01-30T19:12:16;9.60;99.90
13684;DHT22;6914;53.552;9.908;2024-01-30T19:14:43;9.70;99.90
13684;DHT22;6914;53.552;9.908;2024-01-30T19:17:09;9.80;99.90
13684;DHT22;6914;53.552;9.908;2024-01-30T19:19:38;9.60;99.90
13684;DHT22;6914;53.552;9.908;2024-01-30T19:22:05;9.50;99.90
13684;DHT22;6914;53.552;9.908;2024-01-30T19:24:33;9.50;99.90
13684;DHT22;6914;53.552;9.908;2024-01-30T19:27:01;9.50;99.90
13684;DHT22;6914;53.552;9.908;2024-01-30T19:29:27;9.50;99.90
13684;DHT22;6914;53.552;9.908;2024-01-30T19:31:55;9.40;99.90
13684;DHT22;6914;53.552;9.908;2024-01-30T19:34:22;9.60;99.90
13684;DHT22;6914;53.552;9.908;2024-01-30T19:36:50;9.40;99.90
13684;DHT22;6914;53.552;9.908;2024-01-30T19:39:17;9.40;99.90
13684;DHT22;6914;53.552;9.908;2024-01-30T19:41:44;9.30;99.90
13684;DHT22;6914;53.552;9.908;2024-01-30T19:44:11;9.30;99.90
13684;DHT22;6914;53.552;9.908;2024-01-30T19:46:38;9.30;99.90
13684;DHT22;6914;53.552;9.908;2024-01-30T19:49:04;9.30;99.90
13684;DHT22;6914;53.552;9.908;2024-01-30T19:51:31;9.20;99.90
13684;DHT22;6914;53.552;9.908;2024-01-30T19:54:00;9.20;99.90
13684;DHT22;6914;53.552;9.908;2024-01-30T19:56:27;9.20;99.90
13684;DHT22;6914;53.552;9.908;2024-01-30T19:58:53;9.20;99.90
13684;DHT22;6914;53.552;9.908;2024-01-30T20:01:20;9.00;99.90
13684;DHT22;6914;53.552;9.908;2024-01-30T20:03:47;9.20;99.90
13684;DHT22;6914;53.552;9.908;2024-01-30T20:06:14;9.00;99.90
13684;DHT22;6914;53.552;9.908;2024-01-30T20:08:41;9.00;99.90
13684;DHT22;6914;53.552;9.908;2024-01-30T20:11:16;9.00;99.90
13684;DHT22;6914;53.552;9.908;2024-01-30T20:13:43;9.00;99.90
13684;DHT22;6914;53.552;9.908;2024-01-30T20:16:10;9.00;99.90
13684;DHT22;6914;53.552;9.908;2024-01-30T20:18:37;8.90;99.90
13684;DHT22;6914;53.552;9.908;2024-01-30T20:21:04;8.90;99.90
13684;DHT22;6914;53.552;9.908;2024-01-30T20:23:31;8.80;99.90
13684;DHT22;6914;53.552;9.908;2024-01-30T20:25:58;8.80;99.90
13684;DHT22;6914;53.552;9.908;2024-01-30T20:28:26;8.80;99.90
13684;DHT22;6914;53.552;9.908;2024-01-30T20:30:53;8.80;99.90
13684;DHT22;6914;53.552;9.908;2024-01-30T20:33:20;8.80;99.90
13684;DHT22;6914;53.552;9.908;2024-01-30T20:35:47;8.80;99.90
13684;DHT22;6914;53.552;9.908;2024-01-30T20:38:14;8.60;99.90
13684;DHT22;6914;53.552;9.908;2024-01-30T20:40:41;8.00;99.90
13684;DHT22;6914;53.552;9.908;2024-01-30T20:43:08;8.80;99.90
13684;DHT22;6914;53.552;9.908;2024-01-30T20:45:37;8.70;99.90
13684;DHT22;6914;53.552;9.908;2024-01-30T20:48:04;8.60;99.90
13684;DHT22;6914;53.552;9.908;2024-01-30T20:50:31;8.50;99.90
13684;DHT22;6914;53.552;9.908;2024-01-30T20:52:58;8.50;99.90
13684;DHT22;6914;53.552;9.908;2024-01-30T20:55:25;8.40;99.90
13684;DHT22;6914;53.552;9.908;2024-01-30T20:57:52;8.40;99.90
13684;DHT22;6914;53.552;9.908;2024-01-30T21:00:19;8.40;99.90
13684;DHT22;6914;53.552;9.908;2024-01-30T21:02:48;8.40;99.90
13684;DHT22;6914;53.552;9.908;2024-01-30T21:05:15;8.40;99.90
13684;DHT22;6914;53.552;9.908;2024-01-30T21:07:48;8.30;99.90
13684;DHT22;6914;53.552;9.908;2024-01-30T21:10:15;8.30;99.90
13684;DHT22;6914;53.552;9.908;2024-01-30T21:12:42;8.30;99.90
13684;DHT22;6914;53.552;9.908;2024-01-30T21:15:09;8.40;99.90
13684;DHT22;6914;53.552;9.908;2024-01-30T21:20:06;8.10;99.90
13684;DHT22;6914;53.552;9.908;2024-01-30T21:22:34;8.00;99.90
13684;DHT22;6914;53.552;9.908;2024-01-30T21:25:03;7.40;99.90
13684;DHT22;6914;53.552;9.908;2024-01-30T21:27:30;8.00;99.90
13684;DHT22;6914;53.552;9.908;2024-01-30T21:29:57;7.90;99.90
13684;DHT22;6914;53.552;9.908;2024-01-30T21:32:24;7.90;99.90
13684;DHT22;6914;53.552;9.908;2024-01-30T21:34:51;7.80;99.90
13684;DHT22;6914;53.552;9.908;2024-01-30T21:37:22;7.70;99.90
13684;DHT22;6914;53.552;9.908;2024-01-30T21:39:49;7.70;99.90
13684;DHT22;6914;53.552;9.908;2024-01-30T21:42:17;7.60;99.90
13684;DHT22;6914;53.552;9.908;2024-01-30T21:44:45;8.40;99.90
13684;DHT22;6914;53.552;9.908;2024-01-30T21:49:40;7.50;99.90
13684;DHT22;6914;53.552;9.908;2024-01-30T21:52:07;7.40;99.90
13684;DHT22;6914;53.552;9.908;2024-01-30T21:54:35;7.40;99.90
13684;DHT22;6914;53.552;9.908;2024-01-30T21:57:03;7.40;99.90
13684;DHT22;6914;53.552;9.908;2024-01-30T21:59:30;7.40;99.90
13684;DHT22;6914;53.552;9.908;2024-01-30T22:01:57;7.50;99.90
13684;DHT22;6914;53.552;9.908;2024-01-30T22:04:24;7.40;99.90